createdAt,value
2018-09-08T00:00:13.375Z,95840.6
2018-09-08T00:01:15.841Z,95843.3
2018-09-08T00:02:18.304Z,95843.2
2018-09-08T00:03:20.755Z,95842.1
2018-09-08T00:04:23.195Z,95844.7
2018-09-08T00:05:25.627Z,95844.7
2018-09-08T00:06:28.077Z,95845.3
2018-09-08T00:07:30.567Z,95843.9
2018-09-08T00:08:32.984Z,95851.1
2018-09-08T00:09:35.435Z,95850.2
2018-09-08T00:10:37.860Z,95849.6
2018-09-08T00:11:40.301Z,95849.4
2018-09-08T00:12:42.741Z,95850.3
2018-09-08T00:13:45.188Z,95853.2
2018-09-08T00:14:47.623Z,95853.7
2018-09-08T00:15:50.059Z,95852
2018-09-08T00:16:52.514Z,95851.5
2018-09-08T00:17:54.953Z,95851.6
2018-09-08T00:18:57.402Z,95852.5
2018-09-08T00:19:59.867Z,95857.4
2018-09-08T00:21:02.303Z,95856.5
2018-09-08T00:22:04.739Z,95856
2018-09-08T00:23:07.172Z,95860.9
2018-09-08T00:24:09.605Z,95859.9
2018-09-08T00:25:12.046Z,95860.5
2018-09-08T00:26:14.223Z,95865.3
2018-09-08T00:27:16.650Z,95863.2
2018-09-08T00:28:19.088Z,95865.7
2018-09-08T00:29:21.524Z,95867.6
2018-09-08T00:30:23.981Z,95862.1
2018-09-08T00:31:26.420Z,95863.5
2018-09-08T00:32:28.585Z,95865.5
2018-09-08T00:33:31.013Z,95862.3
2018-09-08T00:34:33.453Z,95862.4
2018-09-08T00:35:35.890Z,95860.5
2018-09-08T00:36:38.333Z,95859.8
2018-09-08T00:37:40.797Z,95863.7
2018-09-08T00:38:43.234Z,95860.1
2018-09-08T00:39:45.671Z,95864.3
2018-09-08T00:40:48.115Z,95860.5
2018-09-08T00:41:50.623Z,95860.4
2018-09-08T00:42:53.058Z,95858.4
2018-09-08T00:43:55.483Z,95858.7
2018-09-08T00:44:57.919Z,95855.2
2018-09-08T00:46:00.609Z,95859.5
2018-09-08T00:47:03.036Z,95856.3
2018-09-08T00:48:05.482Z,95860.6
2018-09-08T00:49:07.921Z,95862
2018-09-08T00:50:10.360Z,95861.1
2018-09-08T00:51:12.795Z,95858.9
2018-09-08T00:52:14.971Z,95859.7
2018-09-08T00:53:17.409Z,95860.2
2018-09-08T00:54:19.860Z,95855.4
2018-09-08T00:55:22.291Z,95857.1
2018-09-08T00:56:24.730Z,95856.6
2018-09-08T00:57:27.154Z,95856.1
2018-09-08T00:58:29.590Z,95859.4
2018-09-08T00:59:32.027Z,95861.2
2018-09-08T01:00:34.473Z,95862.2
2018-09-08T01:01:36.901Z,95868.4
2018-09-08T01:02:39.364Z,95873.5
2018-09-08T01:03:41.955Z,95874.4
2018-09-08T01:04:44.414Z,95877.6
2018-09-08T01:05:46.578Z,95878.3
2018-09-08T01:06:49.011Z,95876.4
2018-09-08T01:07:51.451Z,95874.7
2018-09-08T01:08:53.604Z,95875
2018-09-08T01:09:56.041Z,95877.8
2018-09-08T01:10:58.480Z,95874.5
2018-09-08T01:12:00.915Z,95876.5
2018-09-08T01:13:03.340Z,95877.9
2018-09-08T01:14:05.193Z,95873.8
2018-09-08T01:15:07.352Z,95876.4
2018-09-08T01:16:09.776Z,95870.2
2018-09-08T01:17:12.202Z,95868.9
2018-09-08T01:18:14.644Z,95868.2
2018-09-08T01:19:17.080Z,95866
2018-09-08T01:20:19.252Z,95866
2018-09-08T01:21:21.689Z,95867.3
2018-09-08T01:22:24.154Z,95870.7
2018-09-08T01:23:26.601Z,95871
2018-09-08T01:24:28.759Z,95871.7
2018-09-08T01:25:31.185Z,95873.7
2018-09-08T01:26:33.655Z,95871.3
2018-09-08T01:27:36.093Z,95873.3
2018-09-08T01:28:38.528Z,95875.4
2018-09-08T01:29:40.961Z,95874.8
2018-09-08T01:30:43.387Z,95876.6
2018-09-08T01:31:45.824Z,95875.7
2018-09-08T01:32:48.257Z,95876.1
2018-09-08T01:33:50.694Z,95873.7
2018-09-08T01:34:53.133Z,95871.5
2018-09-08T01:35:55.559Z,95872.5
2018-09-08T01:36:57.731Z,95870.4
2018-09-08T01:38:00.176Z,95869.1
2018-09-08T01:39:02.614Z,95872.2
2018-09-08T01:40:05.066Z,95874.5
2018-09-08T01:41:07.507Z,95872.2
2018-09-08T01:42:09.950Z,95874.6
2018-09-08T01:43:12.363Z,95871.7
2018-09-08T01:44:14.839Z,95874.1
2018-09-08T01:45:17.282Z,95874.9
2018-09-08T01:46:19.725Z,95874.4
2018-09-08T01:47:22.164Z,95877.4
2018-09-08T01:48:24.605Z,95880.8
2018-09-08T01:49:27.053Z,95885.4
2018-09-08T01:50:29.213Z,95885.3
2018-09-08T01:51:31.644Z,95886.2
2018-09-08T01:52:34.093Z,95885.2
2018-09-08T01:53:36.262Z,95885.8
2018-09-08T01:54:38.695Z,95887.7
2018-09-08T01:55:40.862Z,95892.2
2018-09-08T01:56:43.303Z,95890.8
2018-09-08T01:57:45.741Z,95891
2018-09-08T01:58:48.191Z,95892.6
2018-09-08T01:59:50.630Z,95893.4
2018-09-08T02:00:53.064Z,95895.2
2018-09-08T02:01:55.196Z,95892.9
2018-09-08T02:02:57.374Z,95897.3
2018-09-08T02:03:59.824Z,95896.7
2018-09-08T02:05:02.269Z,95904
2018-09-08T02:06:04.699Z,95903.7
2018-09-08T02:07:07.131Z,95906.2
2018-09-08T02:08:09.587Z,95905.3
2018-09-08T02:09:12.015Z,95910.5
2018-09-08T02:10:14.454Z,95906.6
2018-09-08T02:11:16.888Z,95904.7
2018-09-08T02:12:19.312Z,95904.4
2018-09-08T02:13:21.755Z,95906.5
2018-09-08T02:14:23.918Z,95904.3
2018-09-08T02:15:26.338Z,95903.1
2018-09-08T02:16:28.782Z,95903.4
2018-09-08T02:17:31.215Z,95907.5
2018-09-08T02:18:33.655Z,95903.7
2018-09-08T02:19:35.827Z,95905.7
2018-09-08T02:20:38.261Z,95907.6
2018-09-08T02:21:40.430Z,95909.1
2018-09-08T02:22:42.955Z,95906.3
2018-09-08T02:23:45.436Z,95909.4
2018-09-08T02:24:47.872Z,95908.5
2018-09-08T02:25:50.306Z,95907.3
2018-09-08T02:26:52.743Z,95910.2
2018-09-08T02:27:55.175Z,95911.1
2018-09-08T02:28:57.612Z,95907.4
2018-09-08T02:30:00.045Z,95911.2
2018-09-08T02:31:02.488Z,95909.6
2018-09-08T02:32:04.933Z,95911.6
2018-09-08T02:33:07.365Z,95911.2
2018-09-08T02:34:09.523Z,95908.7
2018-09-08T02:35:11.973Z,95911.4
2018-09-08T02:36:14.430Z,95913.4
2018-09-08T02:37:16.854Z,95913.5
2018-09-08T02:38:19.291Z,95917.5
2018-09-08T02:39:21.715Z,95918.5
2018-09-08T02:40:24.136Z,95915.5
2018-09-08T02:41:26.575Z,95912.5
2018-09-08T02:42:29.027Z,95909.7
2018-09-08T02:43:31.456Z,95912.7
2018-09-08T02:44:33.882Z,95907.4
2018-09-08T02:45:36.319Z,95910.4
2018-09-08T02:46:38.470Z,95907.8
2018-09-08T02:47:40.912Z,95902.2
2018-09-08T02:48:43.362Z,95903.5
2018-09-08T02:49:45.833Z,95900.2
2018-09-08T02:50:47.971Z,95901.9
2018-09-08T02:51:50.402Z,95903.5
2018-09-08T02:52:52.547Z,95903.2
2018-09-08T02:53:54.972Z,95900.8
2018-09-08T02:54:57.399Z,95902.2
2018-09-08T02:55:59.841Z,95904.1
2018-09-08T02:57:02.274Z,95903.8
2018-09-08T02:58:04.706Z,95906.6
2018-09-08T02:59:06.875Z,95910.6
2018-09-08T03:00:09.316Z,95910
2018-09-08T03:01:11.755Z,95911.8
2018-09-08T03:02:14.198Z,95910.2
2018-09-08T03:03:16.620Z,95910.3
2018-09-08T03:04:19.054Z,95907.1
2018-09-08T03:05:21.500Z,95904.1
2018-09-08T03:06:23.941Z,95907
2018-09-08T03:07:26.383Z,95905.3
2018-09-08T03:08:28.815Z,95909.1
2018-09-08T03:09:31.284Z,95911
2018-09-08T03:10:33.462Z,95914.5
2018-09-08T03:11:35.898Z,95915.8
2018-09-08T03:12:38.316Z,95921.8
2018-09-08T03:13:40.482Z,95914.7
2018-09-08T03:14:42.954Z,95910.2
2018-09-08T03:15:45.448Z,95908.7
2018-09-08T03:16:47.937Z,95904.1
2018-09-08T03:17:50.370Z,95905.7
2018-09-08T03:18:52.794Z,95908.8
2018-09-08T03:19:55.234Z,95908.2
2018-09-08T03:20:57.666Z,95912
2018-09-08T03:22:00.103Z,95910.7
2018-09-08T03:23:02.539Z,95906.5
2018-09-08T03:24:04.994Z,95911
2018-09-08T03:25:07.434Z,95905.6
2018-09-08T03:26:09.868Z,95910.6
2018-09-08T03:27:12.020Z,95908.7
2018-09-08T03:28:14.445Z,95908.7
2018-09-08T03:29:16.870Z,95910.7
2018-09-08T03:30:19.305Z,95910.3
2018-09-08T03:31:21.735Z,95915.9
2018-09-08T03:32:24.174Z,95911.9
2018-09-08T03:33:26.617Z,95913.8
2018-09-08T03:34:29.043Z,95912.5
2018-09-08T03:35:31.475Z,95912.6
2018-09-08T03:36:33.663Z,95915.1
2018-09-08T03:37:36.100Z,95914.3
2018-09-08T03:38:38.269Z,95919.4
2018-09-08T03:39:40.712Z,95917.1
2018-09-08T03:40:43.150Z,95917.6
2018-09-08T03:41:45.602Z,95917
2018-09-08T03:42:47.761Z,95918.5
2018-09-08T03:43:49.929Z,95915.8
2018-09-08T03:44:52.361Z,95918.9
2018-09-08T03:45:54.798Z,95922.6
2018-09-08T03:46:57.218Z,95915.7
2018-09-08T03:47:59.670Z,95917.4
2018-09-08T03:49:02.098Z,95918.4
2018-09-08T03:50:04.529Z,95917.9
2018-09-08T03:51:06.956Z,95918.7
2018-09-08T03:52:09.412Z,95913.2
2018-09-08T03:53:11.845Z,95915.1
2018-09-08T03:54:14.271Z,95913.4
2018-09-08T03:55:16.702Z,95910.8
2018-09-08T03:56:19.141Z,95910.2
2018-09-08T03:57:21.573Z,95912.2
2018-09-08T03:58:24.005Z,95913.3
2018-09-08T03:59:26.434Z,95909.1
2018-09-08T04:00:28.877Z,95908.2
2018-09-08T04:01:31.309Z,95908.4
2018-09-08T04:02:33.785Z,95907.7
2018-09-08T04:03:36.216Z,95907.1
2018-09-08T04:04:38.645Z,95907.8
2018-09-08T04:05:41.376Z,95907.1
2018-09-08T04:06:43.963Z,95907.7
2018-09-08T04:07:46.386Z,95908.1
2018-09-08T04:08:48.537Z,95907.9
2018-09-08T04:09:50.965Z,95908.3
2018-09-08T04:10:53.390Z,95912.1
2018-09-08T04:11:55.825Z,95907.7
2018-09-08T04:12:58.259Z,95913.3
2018-09-08T04:14:00.692Z,95915.2
2018-09-08T04:15:02.854Z,95917.1
2018-09-08T04:16:05.274Z,95916.5
2018-09-08T04:17:07.706Z,95917
2018-09-08T04:18:10.424Z,95918.4
2018-09-08T04:19:12.981Z,95914.6
2018-09-08T04:20:15.461Z,95920.2
2018-09-08T04:21:17.885Z,95919.3
2018-09-08T04:22:20.325Z,95922
2018-09-08T04:23:22.757Z,95920.1
2018-09-08T04:24:25.205Z,95919
2018-09-08T04:25:27.365Z,95916.9
2018-09-08T04:26:29.805Z,95920.2
2018-09-08T04:27:31.971Z,95920.6
2018-09-08T04:28:34.415Z,95919.7
2018-09-08T04:29:37.380Z,95926.4
2018-09-08T04:30:40.003Z,95929.7
2018-09-08T04:31:42.449Z,95927.3
2018-09-08T04:32:44.881Z,95931
2018-09-08T04:33:47.313Z,95934.9
2018-09-08T04:34:49.741Z,95935.7
2018-09-08T04:35:52.171Z,95935
2018-09-08T04:36:54.604Z,95934.2
2018-09-08T04:37:57.035Z,95935.3
2018-09-08T04:38:59.195Z,95940.1
2018-09-08T04:40:01.622Z,95937.6
2018-09-08T04:41:04.315Z,95935.5
2018-09-08T04:42:06.983Z,95939.6
2018-09-08T04:43:09.426Z,95933.2
2018-09-08T04:44:11.860Z,95935.2
2018-09-08T04:45:14.301Z,95936
2018-09-08T04:46:16.735Z,95935.9
2018-09-08T04:47:19.165Z,95935
2018-09-08T04:48:21.333Z,95934.8
2018-09-08T04:49:23.790Z,95934.8
2018-09-08T04:50:26.246Z,95934.7
2018-09-08T04:51:28.674Z,95938.9
2018-09-08T04:52:31.096Z,95937.6
2018-09-08T04:53:33.540Z,95933.9
2018-09-08T04:54:35.984Z,95932.2
2018-09-08T04:55:38.415Z,95935.7
2018-09-08T04:56:40.850Z,95937.5
2018-09-08T04:57:43.280Z,95939.9
2018-09-08T04:58:45.715Z,95938.9
2018-09-08T04:59:48.142Z,95938
2018-09-08T05:00:50.585Z,95938.3
2018-09-08T05:01:53.027Z,95942.1
2018-09-08T05:02:55.475Z,95942.7
2018-09-08T05:03:57.909Z,95941.9
2018-09-08T05:05:00.335Z,95942.3
2018-09-08T05:06:02.768Z,95944.2
2018-09-08T05:07:05.212Z,95944.3
2018-09-08T05:08:07.695Z,95944.4
2018-09-08T05:09:10.615Z,95944.3
2018-09-08T05:10:13.222Z,95946.9
2018-09-08T05:11:15.659Z,95943.1
2018-09-08T05:12:18.110Z,95942.4
2018-09-08T05:13:20.553Z,95945.8
2018-09-08T05:14:22.993Z,95941.1
2018-09-08T05:15:25.444Z,95943.4
2018-09-08T05:16:27.879Z,95946.1
2018-09-08T05:17:29.765Z,95944.2
2018-09-08T05:18:32.198Z,95948.7
2018-09-08T05:19:34.646Z,95949.4
2018-09-08T05:20:37.074Z,95948
2018-09-08T05:21:39.526Z,95951.1
2018-09-08T05:22:41.964Z,95954.4
2018-09-08T05:23:44.426Z,95952.4
2018-09-08T05:24:46.878Z,95954.5
2018-09-08T05:25:49.319Z,95957
2018-09-08T05:26:51.754Z,95955.5
2018-09-08T05:27:54.205Z,95952.6
2018-09-08T05:28:56.629Z,95957.7
2018-09-08T05:29:59.062Z,95956.5
2018-09-08T05:31:01.503Z,95954.7
2018-09-08T05:32:03.935Z,95958
2018-09-08T05:33:06.374Z,95957.5
2018-09-08T05:34:08.533Z,95955.3
2018-09-08T05:35:11.110Z,95958.3
2018-09-08T05:36:13.543Z,95956.4
2018-09-08T05:37:15.980Z,95952.9
2018-09-08T05:38:18.424Z,95953.3
2018-09-08T05:39:20.856Z,95950.5
2018-09-08T05:40:23.295Z,95954.9
2018-09-08T05:41:25.740Z,95951.7
2018-09-08T05:42:28.177Z,95955.5
2018-09-08T05:43:30.606Z,95950.6
2018-09-08T05:44:33.049Z,95952.8
2018-09-08T05:45:35.499Z,95952.6
2018-09-08T05:46:37.925Z,95956.9
2018-09-08T05:47:40.369Z,95958.7
2018-09-08T05:48:42.870Z,95955.3
2018-09-08T05:49:45.014Z,95953.8
2018-09-08T05:50:47.455Z,95952.1
2018-09-08T05:51:49.905Z,95953.5
2018-09-08T05:52:52.042Z,95957.6
2018-09-08T05:53:54.486Z,95955.1
2018-09-08T05:54:56.924Z,95951.6
2018-09-08T05:55:59.349Z,95955.4
2018-09-08T05:57:01.779Z,95958.2
2018-09-08T05:58:04.196Z,95963.6
2018-09-08T05:59:06.647Z,95959.3
2018-09-08T06:00:09.077Z,95955.2
2018-09-08T06:01:11.513Z,95960.5
2018-09-08T06:02:13.975Z,95960.5
2018-09-08T06:03:16.423Z,95963.2
2018-09-08T06:04:18.594Z,95959.6
2018-09-08T06:05:21.043Z,95963.1
2018-09-08T06:06:23.461Z,95964.9
2018-09-08T06:07:25.886Z,95964.2
2018-09-08T06:08:28.314Z,95969.1
2018-09-08T06:09:30.756Z,95965.8
2018-09-08T06:10:33.197Z,95969.3
2018-09-08T06:11:35.632Z,95974.2
2018-09-08T06:12:38.092Z,95967.9
2018-09-08T06:13:40.531Z,95971
2018-09-08T06:14:43.009Z,95971.1
2018-09-08T06:15:45.168Z,95971.9
2018-09-08T06:16:47.595Z,95969.6
2018-09-08T06:17:50.036Z,95977.5
2018-09-08T06:18:52.477Z,95978.5
2018-09-08T06:19:54.920Z,95980.7
2018-09-08T06:20:57.341Z,95977.9
2018-09-08T06:21:59.795Z,95980.9
2018-09-08T06:23:02.226Z,95983.2
2018-09-08T06:24:04.673Z,95985.4
2018-09-08T06:25:07.117Z,95983.4
2018-09-08T06:26:09.550Z,95985.6
2018-09-08T06:27:11.985Z,95987.3
2018-09-08T06:28:14.451Z,95985.9
2018-09-08T06:29:16.881Z,95988.2
2018-09-08T06:30:19.350Z,95990.1
2018-09-08T06:31:21.780Z,95986.4
2018-09-08T06:32:24.225Z,95986
2018-09-08T06:33:26.860Z,95983.6
2018-09-08T06:34:29.416Z,95984
2018-09-08T06:35:31.873Z,95980.1
2018-09-08T06:36:34.374Z,95986.7
2018-09-08T06:37:36.805Z,95985.7
2018-09-08T06:38:38.964Z,95986.4
2018-09-08T06:39:41.404Z,95987.8
2018-09-08T06:40:43.545Z,95988.5
2018-09-08T06:41:45.986Z,95985.7
2018-09-08T06:42:48.428Z,95989.6
2018-09-08T06:43:50.856Z,95992.4
2018-09-08T06:44:53.699Z,95992.4
2018-09-08T06:45:56.303Z,95991.9
2018-09-08T06:46:58.445Z,95994.1
2018-09-08T06:48:00.882Z,95993.3
2018-09-08T06:49:03.335Z,95992.2
2018-09-08T06:50:05.788Z,95993
2018-09-08T06:51:07.946Z,95998.8
2018-09-08T06:52:10.596Z,95999.7
2018-09-08T06:53:12.806Z,95998.5
2018-09-08T06:54:15.245Z,95996.9
2018-09-08T06:55:17.702Z,95998.2
2018-09-08T06:56:20.140Z,96000.7
2018-09-08T06:57:22.583Z,95998.4
2018-09-08T06:58:24.819Z,96001.4
2018-09-08T06:59:27.256Z,96004.9
2018-09-08T07:00:29.687Z,96009
2018-09-08T07:01:32.121Z,96003.4
2018-09-08T07:02:34.574Z,96004.8
2018-09-08T07:03:37.010Z,96003.2
2018-09-08T07:04:39.168Z,96006.8
2018-09-08T07:05:41.701Z,96006.7
2018-09-08T07:06:44.144Z,96007.7
2018-09-08T07:07:46.350Z,96007.2
2018-09-08T07:08:48.786Z,96013.1
2018-09-08T07:09:51.215Z,96010.7
2018-09-08T07:10:53.652Z,96011.5
2018-09-08T07:11:56.099Z,96009.6
2018-09-08T07:12:58.539Z,96013.6
2018-09-08T07:14:00.966Z,96012.9
2018-09-08T07:15:03.530Z,96011.4
2018-09-08T07:16:06.038Z,96012
2018-09-08T07:17:08.466Z,96011.7
2018-09-08T07:18:10.930Z,96013.5
2018-09-08T07:19:13.355Z,96012.8
2018-09-08T07:20:15.787Z,96014.3
2018-09-08T07:21:18.247Z,96012.6
2018-09-08T07:22:20.675Z,96014.5
2018-09-08T07:23:23.104Z,96017
2018-09-08T07:24:25.246Z,96011.4
2018-09-08T07:25:27.707Z,96010.6
2018-09-08T07:26:30.149Z,96012.8
2018-09-08T07:27:32.315Z,96014.6
2018-09-08T07:28:34.754Z,96015.1
2018-09-08T07:29:36.897Z,96014.1
2018-09-08T07:30:38.784Z,96025.1
2018-09-08T07:31:40.963Z,96022.8
2018-09-08T07:32:43.449Z,96026.3
2018-09-08T07:33:45.923Z,96025.8
2018-09-08T07:34:48.377Z,96027.9
2018-09-08T07:35:50.817Z,96020.5
2018-09-08T07:36:53.252Z,96027.6
2018-09-08T07:37:55.722Z,96029.2
2018-09-08T07:38:58.226Z,96027
2018-09-08T07:40:00.708Z,96028.8
2018-09-08T07:41:03.329Z,96029.1
2018-09-08T07:42:05.766Z,96026.2
2018-09-08T07:43:08.212Z,96027.3
2018-09-08T07:44:10.411Z,96029.6
2018-09-08T07:45:12.890Z,96029.4
2018-09-08T07:46:15.346Z,96030.9
2018-09-08T07:47:17.778Z,96032.7
2018-09-08T07:48:20.239Z,96028.5
2018-09-08T07:49:22.711Z,96035.2
2018-09-08T07:50:25.142Z,96033.3
2018-09-08T07:51:27.282Z,96033.6
2018-09-08T07:52:29.719Z,96033.5
2018-09-08T07:53:32.830Z,96041.2
2018-09-08T07:54:35.314Z,96038.6
2018-09-08T07:55:37.755Z,96037.6
2018-09-08T07:56:40.205Z,96039.5
2018-09-08T07:57:42.668Z,96041.6
2018-09-08T07:58:45.097Z,96040.8
2018-09-08T07:59:47.544Z,96041.3
2018-09-08T08:00:49.973Z,96042
2018-09-08T08:01:52.407Z,96042.5
2018-09-08T08:02:54.856Z,96041
2018-09-08T08:03:57.308Z,96046.9
2018-09-08T08:04:59.757Z,96044.9
2018-09-08T08:06:01.929Z,96050
2018-09-08T08:07:04.102Z,96047.8
2018-09-08T08:08:06.557Z,96050.3
2018-09-08T08:09:09.001Z,96047.2
2018-09-08T08:10:11.448Z,96048.8
2018-09-08T08:11:13.904Z,96048.7
2018-09-08T08:12:16.378Z,96049.6
2018-09-08T08:13:18.839Z,96048.5
2018-09-08T08:14:21.368Z,96046.6
2018-09-08T08:15:23.911Z,96047.8
2018-09-08T08:16:26.380Z,96052
2018-09-08T08:17:28.820Z,96050.2
2018-09-08T08:18:31.249Z,96052
2018-09-08T08:19:33.387Z,96055.8
2018-09-08T08:20:35.813Z,96057.4
2018-09-08T08:21:38.241Z,96058.8
2018-09-08T08:22:40.396Z,96058.9
2018-09-08T08:23:42.840Z,96058.7
2018-09-08T08:24:45.288Z,96056.9
2018-09-08T08:25:47.726Z,96058.1
2018-09-08T08:26:50.165Z,96054.9
2018-09-08T08:27:52.613Z,96056.8
2018-09-08T08:28:55.051Z,96056.2
2018-09-08T08:29:57.502Z,96055.7
2018-09-08T08:31:00.001Z,96055.5
2018-09-08T08:32:02.469Z,96054.4
2018-09-08T08:33:04.921Z,96057.6
2018-09-08T08:34:07.390Z,96055.6
2018-09-08T08:35:09.817Z,96057.6
2018-09-08T08:36:12.278Z,96060.7
2018-09-08T08:37:15.091Z,96059.6
2018-09-08T08:38:17.647Z,96059.7
2018-09-08T08:39:20.086Z,96058.6
2018-09-08T08:40:22.273Z,96058.8
2018-09-08T08:41:24.718Z,96056.9
2018-09-08T08:42:27.155Z,96066
2018-09-08T08:43:29.586Z,96062.3
2018-09-08T08:44:32.027Z,96061.4
2018-09-08T08:45:34.477Z,96061.5
2018-09-08T08:46:36.642Z,96057.3
2018-09-08T08:47:39.083Z,96058.5
2018-09-08T08:48:41.575Z,96059.7
2018-09-08T08:49:44.381Z,96059.9
2018-09-08T08:50:46.925Z,96059.9
2018-09-08T08:51:49.406Z,96060.2
2018-09-08T08:52:51.573Z,96057.6
2018-09-08T08:53:54.057Z,96056.8
2018-09-08T08:54:56.491Z,96057.2
2018-09-08T08:55:58.921Z,96058
2018-09-08T08:57:01.380Z,96058.4
2018-09-08T08:58:03.817Z,96063
2018-09-08T08:59:06.246Z,96060.7
2018-09-08T09:00:08.418Z,96063.4
2018-09-08T09:01:10.866Z,96057.9
2018-09-08T09:02:13.300Z,96062.4
2018-09-08T09:03:15.747Z,96057.4
2018-09-08T09:04:18.186Z,96058.3
2018-09-08T09:05:20.607Z,96063
2018-09-08T09:06:23.061Z,96061.9
2018-09-08T09:07:25.484Z,96062.8
2018-09-08T09:08:30.353Z,96061
2018-09-08T09:09:33.812Z,96058.8
2018-09-08T09:10:36.243Z,96061.4
2018-09-08T09:11:39.627Z,96058.2
2018-09-08T09:12:42.316Z,96058
2018-09-08T09:13:44.747Z,96052.4
2018-09-08T09:14:47.205Z,96054.6
2018-09-08T09:15:49.642Z,96054.9
2018-09-08T09:16:52.088Z,96052.3
2018-09-08T09:17:54.270Z,96054.4
2018-09-08T09:18:59.247Z,96052.7
2018-09-08T09:20:02.350Z,96053.6
2018-09-08T09:21:04.799Z,96050
2018-09-08T09:22:07.238Z,96048.4
2018-09-08T09:23:10.123Z,96047.8
2018-09-08T09:24:13.031Z,96048.9
2018-09-08T09:25:15.631Z,96044.5
2018-09-08T09:26:18.075Z,96048.4
2018-09-08T09:27:20.512Z,96044.5
2018-09-08T09:28:22.959Z,96044.1
2018-09-08T09:29:25.408Z,96043.7
2018-09-08T09:30:27.842Z,96042.8
2018-09-08T09:31:30.019Z,96041.3
2018-09-08T09:32:32.475Z,96042.2
2018-09-08T09:33:34.634Z,96039.9
2018-09-08T09:34:37.084Z,96037
2018-09-08T09:35:39.520Z,96037.3
2018-09-08T09:36:41.974Z,96033.3
2018-09-08T09:37:44.403Z,96035.7
2018-09-08T09:38:46.853Z,96031
2018-09-08T09:39:49.285Z,96028.5
2018-09-08T09:40:51.728Z,96027.2
2018-09-08T09:41:54.157Z,96024.7
2018-09-08T09:42:56.623Z,96022.4
2018-09-08T09:43:59.077Z,96025.9
2018-09-08T09:45:01.523Z,96025.7
2018-09-08T09:46:03.702Z,96027.9
2018-09-08T09:47:06.134Z,96023.3
2018-09-08T09:48:08.586Z,96023.9
2018-09-08T09:49:11.023Z,96029.5
2018-09-08T09:50:13.202Z,96027.8
2018-09-08T09:51:15.657Z,96028.8
2018-09-08T09:52:17.834Z,96027.1
2018-09-08T09:53:20.320Z,96027.4
2018-09-08T09:54:22.761Z,96029
2018-09-08T09:55:25.195Z,96027.4
2018-09-08T09:56:27.645Z,96026.9
2018-09-08T09:57:30.075Z,96023.5
2018-09-08T09:58:32.521Z,96028
2018-09-08T09:59:34.952Z,96025.7
2018-09-08T10:00:37.429Z,96025.9
2018-09-08T10:01:39.861Z,96024.7
2018-09-08T10:02:42.324Z,96022.6
2018-09-08T10:03:44.771Z,96020.1
2018-09-08T10:04:47.202Z,96019.5
2018-09-08T10:05:49.636Z,96018.2
2018-09-08T10:06:52.085Z,96020.5
2018-09-08T10:07:54.525Z,96015.7
2018-09-08T10:08:56.959Z,96016.3
2018-09-08T10:09:59.425Z,96012.9
2018-09-08T10:11:01.601Z,96012.4
2018-09-08T10:12:04.232Z,96013.4
2018-09-08T10:13:06.831Z,96011.9
2018-09-08T10:14:08.982Z,96009.6
2018-09-08T10:15:11.430Z,96009.8
2018-09-08T10:16:13.886Z,96012.4
2018-09-08T10:17:16.345Z,96012.5
2018-09-08T10:18:18.784Z,96007.5
2018-09-08T10:19:21.217Z,96013.9
2018-09-08T10:20:23.673Z,96013.5
2018-09-08T10:21:26.138Z,96004.7
2018-09-08T10:22:28.563Z,96009.1
2018-09-08T10:23:31.462Z,96010.8
2018-09-08T10:24:34.108Z,96014.2
2018-09-08T10:25:36.553Z,96012.3
2018-09-08T10:26:38.988Z,96010.1
2018-09-08T10:27:41.432Z,96009.5
2018-09-08T10:28:43.862Z,96006.9
2018-09-08T10:29:46.038Z,96007.7
2018-09-08T10:30:48.501Z,96008.8
2018-09-08T10:31:52.637Z,96005.8
2018-09-08T10:32:55.086Z,96003.2
2018-09-08T10:33:57.552Z,96002.2
2018-09-08T10:34:59.963Z,95999.8
2018-09-08T10:36:02.144Z,96000.4
2018-09-08T10:37:04.598Z,95999.7
2018-09-08T10:38:07.017Z,95996.4
2018-09-08T10:39:09.455Z,95995.1
2018-09-08T10:40:12.061Z,95997.6
2018-09-08T10:41:14.521Z,95997.7
2018-09-08T10:42:16.960Z,95994.5
2018-09-08T10:43:19.392Z,95987.5
2018-09-08T10:44:21.833Z,95990.2
2018-09-08T10:45:24.282Z,95993.1
2018-09-08T10:46:26.714Z,95988.5
2018-09-08T10:47:29.147Z,95989.7
2018-09-08T10:48:31.584Z,95990
2018-09-08T10:49:34.017Z,95986.1
2018-09-08T10:50:36.455Z,95990.7
2018-09-08T10:51:38.894Z,95990.7
2018-09-08T10:52:41.322Z,95990.1
2018-09-08T10:53:43.760Z,95987.5
2018-09-08T10:54:46.192Z,95987.7
2018-09-08T10:55:48.645Z,95990.3
2018-09-08T10:56:51.092Z,95990
2018-09-08T10:57:53.587Z,95988
2018-09-08T10:58:56.017Z,95991.6
2018-09-08T10:59:58.460Z,95989.1
2018-09-08T11:01:00.904Z,95990.4
2018-09-08T11:02:04.862Z,95991.7
2018-09-08T11:03:07.984Z,95990.3
2018-09-08T11:04:10.437Z,95992.9
2018-09-08T11:05:12.863Z,95991.9
2018-09-08T11:06:15.314Z,95990.6
2018-09-08T11:07:17.748Z,95989.8
2018-09-08T11:08:20.184Z,95988.4
2018-09-08T11:09:22.618Z,95988.4
2018-09-08T11:10:25.076Z,95987.7
2018-09-08T11:11:27.513Z,95983.3
2018-09-08T11:12:29.686Z,95983.9
2018-09-08T11:13:32.129Z,95985.2
2018-09-08T11:14:34.563Z,95985.3
2018-09-08T11:15:37.017Z,95977.4
2018-09-08T11:16:39.436Z,95980.7
2018-09-08T11:17:41.869Z,95980.6
2018-09-08T11:18:44.376Z,95978.3
2018-09-08T11:19:46.876Z,95977.1
2018-09-08T11:20:49.319Z,95976.1
2018-09-08T11:21:51.748Z,95977.1
2018-09-08T11:22:54.187Z,95976.5
2018-09-08T11:23:56.639Z,95972.6
2018-09-08T11:24:59.082Z,95969.2
2018-09-08T11:26:01.538Z,95977.2
2018-09-08T11:27:03.997Z,95974.2
2018-09-08T11:28:06.449Z,95980.3
2018-09-08T11:29:08.877Z,95976.8
2018-09-08T11:30:11.311Z,95978.3
2018-09-08T11:31:13.758Z,95978.5
2018-09-08T11:32:16.219Z,95978.1
2018-09-08T11:33:18.658Z,95980.5
2018-09-08T11:34:21.117Z,95983.3
2018-09-08T11:35:23.580Z,95987
2018-09-08T11:36:26.030Z,95983.8
2018-09-08T11:37:28.470Z,95983.3
2018-09-08T11:38:31.501Z,95985.5
2018-09-08T11:39:34.099Z,95982.8
2018-09-08T11:40:36.540Z,95985.8
2018-09-08T11:41:39.024Z,95985.5
2018-09-08T11:42:41.458Z,95985
2018-09-08T11:43:43.900Z,95984.2
2018-09-08T11:44:46.570Z,95980.6
2018-09-08T11:45:49.058Z,95981.1
2018-09-08T11:46:51.500Z,95978.3
2018-09-08T11:47:53.933Z,95980.2
2018-09-08T11:48:56.364Z,95975
2018-09-08T11:49:58.826Z,95975.7
2018-09-08T11:51:01.315Z,95974
2018-09-08T11:52:03.788Z,95973.9
2018-09-08T11:53:06.362Z,95972
2018-09-08T11:54:08.820Z,95973.6
2018-09-08T11:55:11.255Z,95972.7
2018-09-08T11:56:13.769Z,95963
2018-09-08T11:57:16.235Z,95962
2018-09-08T11:58:18.677Z,95961.8
2018-09-08T11:59:20.829Z,95960.7
2018-09-08T12:00:23.271Z,95958.2
2018-09-08T12:01:25.737Z,95955.5
2018-09-08T12:02:28.170Z,95953.1
2018-09-08T12:03:30.621Z,95950.6
2018-09-08T12:04:33.044Z,95951.7
2018-09-08T12:05:35.512Z,95948.3
2018-09-08T12:06:37.967Z,95951.6
2018-09-08T12:07:40.390Z,95952.2
2018-09-08T12:08:42.812Z,95954
2018-09-08T12:09:45.245Z,95954.7
2018-09-08T12:10:47.758Z,95953.1
2018-09-08T12:11:49.917Z,95951.2
2018-09-08T12:12:52.388Z,95951
2018-09-08T12:13:55.047Z,95950.6
2018-09-08T12:14:57.595Z,95952.5
2018-09-08T12:16:00.044Z,95951.2
2018-09-08T12:17:02.479Z,95949.9
2018-09-08T12:18:04.632Z,95948.2
2018-09-08T12:19:07.391Z,95949.6
2018-09-08T12:20:09.936Z,95948.9
2018-09-08T12:21:12.402Z,95950.3
2018-09-08T12:22:15.124Z,95948.5
2018-09-08T12:23:17.688Z,95950.5
2018-09-08T12:24:20.147Z,95949.5
2018-09-08T12:25:22.315Z,95952.7
2018-09-08T12:26:24.473Z,95949.4
2018-09-08T12:27:26.981Z,95946.9
2018-09-08T12:28:29.454Z,95947.4
2018-09-08T12:29:31.906Z,95944.3
2018-09-08T12:30:34.819Z,95944.1
2018-09-08T12:31:37.474Z,95943.8
2018-09-08T12:32:39.923Z,95941.3
2018-09-08T12:33:42.108Z,95943.1
2018-09-08T12:34:44.567Z,95944
2018-09-08T12:35:47.015Z,95938.7
2018-09-08T12:36:48.884Z,95940
2018-09-08T12:37:51.057Z,95938.4
2018-09-08T12:38:53.978Z,95937.5